Williston, Tennessee
Current Conditions -  °F | °C
As of 3:50 PM on Monday 20 Oct 2014 (Local Time) from KOLV Reporting Station
Broken Clouds Broken Clouds  
Wind Chill: 70°   Ceiling: 9000
Heat Index: 70°   Visibility: 10mi
Dew Point: 52°   Wind: 6mph
Humidity: 53%   Direction: 290°WNW
Pressure: 30.03"   Gusts: NA
Location:  35.16°N, 89.37°W
Report Text: KOLV 202050Z 29005KT 10SM BKN090 21/11 A3003
Loading
Personal Weather Stations






























Interactive Weather Map
Tropical Storm Tracking
New forecast layout! Learn more

10-Day Weather Forecast

Advertisements
Track Severe Weather on mobile